createdAt,value
2023-04-09T00:00:19.245Z,23.20
2023-04-09T00:01:19.159Z,22.80
2023-04-09T00:02:19.158Z,21.90
2023-04-09T00:03:19.213Z,22.70
2023-04-09T00:04:19.179Z,21.50
2023-04-09T00:05:19.154Z,23.10
2023-04-09T00:06:19.146Z,21.90
2023-04-09T00:07:19.108Z,23.60
2023-04-09T00:08:19.090Z,22.00
2023-04-09T00:09:19.123Z,22.70
2023-04-09T00:10:19.059Z,22.60
2023-04-09T00:11:19.076Z,22.90
2023-04-09T00:12:19.106Z,21.90
2023-04-09T00:13:28.253Z,22.60
2023-04-09T00:14:20.016Z,22.70
2023-04-09T00:15:28.151Z,21.80
2023-04-09T00:16:20.050Z,21.70
2023-04-09T00:17:19.039Z,22.10
2023-04-09T00:18:19.013Z,21.40
2023-04-09T00:19:18.976Z,22.60
2023-04-09T00:20:18.945Z,21.60
2023-04-09T00:21:18.957Z,23.70
2023-04-09T00:22:18.957Z,22.90
2023-04-09T00:23:18.992Z,22.90
2023-04-09T00:24:20.377Z,22.60
2023-04-09T00:25:18.923Z,22.00
2023-04-09T00:26:18.883Z,22.30
2023-04-09T00:27:18.890Z,22.40
2023-04-09T00:28:18.854Z,22.70
2023-04-09T00:29:18.980Z,22.30
2023-04-09T00:30:19.852Z,24.00
2023-04-09T00:31:20.599Z,23.50
2023-04-09T00:32:18.847Z,22.70
2023-04-09T00:33:18.804Z,22.40
2023-04-09T00:34:18.801Z,23.70
2023-04-09T00:35:18.814Z,22.50
2023-04-09T00:36:18.775Z,23.60
2023-04-09T00:37:18.779Z,23.10
2023-04-09T00:38:18.769Z,22.30
2023-04-09T00:39:18.739Z,22.90
2023-04-09T00:40:18.748Z,22.50
2023-04-09T00:41:18.713Z,22.50
2023-04-09T00:42:18.697Z,23.40
2023-04-09T00:43:18.706Z,22.80
2023-04-09T00:44:18.681Z,22.90
2023-04-09T00:45:18.719Z,23.80
2023-04-09T00:46:18.713Z,22.20
2023-04-09T00:47:19.673Z,22.70
2023-04-09T00:48:18.644Z,24.10
2023-04-09T00:49:18.641Z,23.40
2023-04-09T00:50:19.573Z,23.10
2023-04-09T00:51:18.672Z,22.70
2023-04-09T00:52:18.601Z,22.60
2023-04-09T00:53:18.601Z,22.70
2023-04-09T00:54:18.587Z,24.00
2023-04-09T00:55:18.568Z,23.80
2023-04-09T00:56:18.559Z,22.20
2023-04-09T00:57:18.590Z,23.30
2023-04-09T00:58:18.523Z,24.00
2023-04-09T00:59:18.523Z,23.20
2023-04-09T01:00:18.520Z,23.40
2023-04-09T01:01:18.527Z,23.70
2023-04-09T01:02:18.607Z,24.00
2023-04-09T01:03:18.528Z,23.60
2023-04-09T01:04:18.461Z,23.90
2023-04-09T01:05:19.941Z,24.00
2023-04-09T01:06:18.434Z,23.60
2023-04-09T01:07:18.424Z,23.50
2023-04-09T01:08:18.462Z,24.50
2023-04-09T01:09:18.404Z,23.10
2023-04-09T01:10:19.425Z,23.80
2023-04-09T01:11:18.399Z,23.40
2023-04-09T01:12:18.370Z,25.10
2023-04-09T01:13:18.375Z,23.50
2023-04-09T01:14:18.351Z,24.60
2023-04-09T01:15:18.332Z,24.10
2023-04-09T01:16:18.339Z,24.20
2023-04-09T01:17:18.440Z,23.90
2023-04-09T01:18:18.291Z,25.80
2023-04-09T01:19:18.356Z,23.70
2023-04-09T01:20:19.252Z,23.80
2023-04-09T01:21:18.279Z,24.10
2023-04-09T01:22:18.260Z,24.50
2023-04-09T01:23:18.235Z,24.20
2023-04-09T01:24:18.224Z,24.20
2023-04-09T01:25:18.263Z,24.20
2023-04-09T01:26:18.253Z,22.50
2023-04-09T01:27:18.199Z,23.60
2023-04-09T01:28:18.226Z,23.00
2023-04-09T01:29:18.181Z,24.40
2023-04-09T01:30:19.285Z,22.70
2023-04-09T01:31:18.163Z,23.50
2023-04-09T01:32:18.156Z,23.80
2023-04-09T01:33:18.702Z,24.00
2023-04-09T01:34:18.154Z,23.90
2023-04-09T01:35:18.119Z,24.30
2023-04-09T01:36:19.078Z,24.40
2023-04-09T01:37:18.111Z,23.80
2023-04-09T01:38:18.650Z,24.40
2023-04-09T01:39:18.107Z,24.10
2023-04-09T01:40:18.680Z,24.20
2023-04-09T01:41:19.571Z,23.50
2023-04-09T01:42:18.057Z,23.40
2023-04-09T01:43:18.025Z,23.80
2023-04-09T01:44:18.010Z,23.10
2023-04-09T01:45:18.032Z,22.60
2023-04-09T01:46:18.052Z,23.70
2023-04-09T01:47:18.018Z,22.80
2023-04-09T01:48:18.419Z,23.00
2023-04-09T01:49:17.970Z,24.40
2023-04-09T01:50:18.556Z,23.10
2023-04-09T01:51:18.760Z,22.90
2023-04-09T01:52:17.938Z,22.90
2023-04-09T01:53:18.061Z,23.50
2023-04-09T01:54:18.863Z,23.70
2023-04-09T01:55:17.891Z,24.30
2023-04-09T01:56:17.912Z,23.90
2023-04-09T01:57:17.896Z,23.50
2023-04-09T01:58:17.866Z,23.80
2023-04-09T01:59:18.690Z,23.80
2023-04-09T02:00:19.306Z,23.50
2023-04-09T02:01:18.133Z,24.60
2023-04-09T02:02:17.960Z,22.10
2023-04-09T02:03:17.899Z,22.90
2023-04-09T02:04:18.002Z,23.50
2023-04-09T02:05:17.810Z,23.30
2023-04-09T02:06:17.784Z,23.40
2023-04-09T02:07:17.799Z,22.90
2023-04-09T02:08:17.749Z,23.40
2023-04-09T02:09:17.771Z,23.10
2023-04-09T02:10:17.805Z,23.10
2023-04-09T02:11:18.082Z,24.50
2023-04-09T02:12:17.713Z,23.90
2023-04-09T02:13:18.432Z,24.40
2023-04-09T02:14:17.701Z,23.20
2023-04-09T02:15:18.639Z,22.70
2023-04-09T02:16:18.690Z,22.30
2023-04-09T02:17:19.210Z,23.60
2023-04-09T02:18:17.671Z,23.40
2023-04-09T02:19:18.028Z,23.40
2023-04-09T02:20:17.901Z,23.00
2023-04-09T02:21:19.065Z,22.70
2023-04-09T02:22:18.441Z,22.60
2023-04-09T02:23:17.599Z,23.20
2023-04-09T02:24:17.586Z,23.80
2023-04-09T02:25:18.447Z,23.70
2023-04-09T02:26:17.564Z,24.30
2023-04-09T02:27:17.580Z,22.60
2023-04-09T02:28:17.547Z,23.50
2023-04-09T02:29:17.549Z,23.70
2023-04-09T02:30:17.686Z,23.30
2023-04-09T02:31:17.617Z,23.40
2023-04-09T02:32:17.538Z,23.50
2023-04-09T02:33:17.490Z,24.30
2023-04-09T02:34:17.484Z,23.70
2023-04-09T02:35:17.476Z,24.50
2023-04-09T02:36:17.488Z,23.70
2023-04-09T02:37:17.435Z,24.20
2023-04-09T02:38:17.437Z,23.60
2023-04-09T02:39:17.412Z,23.50
2023-04-09T02:40:17.451Z,21.80
2023-04-09T02:41:17.398Z,23.80
2023-04-09T02:42:17.398Z,24.50
2023-04-09T02:43:17.362Z,23.60
2023-04-09T02:44:17.411Z,24.90
2023-04-09T02:45:17.344Z,23.70
2023-04-09T02:46:17.380Z,22.60
2023-04-09T02:47:17.323Z,24.60
2023-04-09T02:48:18.792Z,23.60
2023-04-09T02:49:17.312Z,24.20
2023-04-09T02:50:17.431Z,23.40
2023-04-09T02:51:17.302Z,23.10
2023-04-09T02:52:17.306Z,24.00
2023-04-09T02:53:18.789Z,25.80
2023-04-09T02:54:17.260Z,23.80
2023-04-09T02:55:17.269Z,24.50
2023-04-09T02:56:17.254Z,24.90
2023-04-09T02:57:17.252Z,24.00
2023-04-09T02:58:17.212Z,22.80
2023-04-09T02:59:17.187Z,23.50
2023-04-09T03:00:17.205Z,22.80
2023-04-09T03:01:17.391Z,23.90
2023-04-09T03:02:17.212Z,24.60
2023-04-09T03:03:17.380Z,25.40
2023-04-09T03:04:17.151Z,23.60
2023-04-09T03:05:17.122Z,25.30
2023-04-09T03:06:17.108Z,25.80
2023-04-09T03:07:17.138Z,25.90
2023-04-09T03:08:17.095Z,25.10
2023-04-09T03:09:17.093Z,25.00
2023-04-09T03:10:17.083Z,25.50
2023-04-09T03:11:17.058Z,26.30
2023-04-09T03:12:17.041Z,24.50
2023-04-09T03:13:17.086Z,25.30
2023-04-09T03:14:17.022Z,23.70
2023-04-09T03:15:17.009Z,25.40
2023-04-09T03:16:17.994Z,23.60
2023-04-09T03:17:18.506Z,25.50
2023-04-09T03:18:17.008Z,24.60
2023-04-09T03:19:16.984Z,24.50
2023-04-09T03:20:17.070Z,24.30
2023-04-09T03:21:17.033Z,24.80
2023-04-09T03:22:16.956Z,26.30
2023-04-09T03:23:16.942Z,25.80
2023-04-09T03:24:17.845Z,25.60
2023-04-09T03:25:16.941Z,25.70
2023-04-09T03:26:16.893Z,25.20
2023-04-09T03:27:16.879Z,25.70
2023-04-09T03:28:16.872Z,26.00
2023-04-09T03:29:16.880Z,24.10
2023-04-09T03:30:17.048Z,24.10
2023-04-09T03:31:16.895Z,26.00
2023-04-09T03:32:18.558Z,24.10
2023-04-09T03:33:16.826Z,25.00
2023-04-09T03:34:16.803Z,22.90
2023-04-09T03:35:16.800Z,24.60
2023-04-09T03:36:16.863Z,24.10
2023-04-09T03:37:16.815Z,24.40
2023-04-09T03:38:16.774Z,24.20
2023-04-09T03:39:16.740Z,26.00
2023-04-09T03:40:17.045Z,24.50
2023-04-09T03:41:16.707Z,25.10
2023-04-09T03:42:16.721Z,24.90
2023-04-09T03:43:16.704Z,24.90
2023-04-09T03:44:16.736Z,25.80
2023-04-09T03:45:16.794Z,25.50
2023-04-09T03:46:16.732Z,24.50
2023-04-09T03:47:16.723Z,26.90
2023-04-09T03:48:16.653Z,25.50
2023-04-09T03:49:17.148Z,25.50
2023-04-09T03:50:16.632Z,25.60
2023-04-09T03:51:16.607Z,26.70
2023-04-09T03:52:16.633Z,25.60
2023-04-09T03:53:16.606Z,27.50
2023-04-09T03:54:16.582Z,26.20
2023-04-09T03:55:16.574Z,26.80
2023-04-09T03:56:16.565Z,26.60
2023-04-09T03:57:16.541Z,27.90
2023-04-09T03:58:16.580Z,28.90
2023-04-09T03:59:16.533Z,28.90
2023-04-09T04:00:17.509Z,28.40
2023-04-09T04:01:16.508Z,27.60
2023-04-09T04:02:16.589Z,29.10
2023-04-09T04:03:16.857Z,27.80
2023-04-09T04:04:16.644Z,28.90
2023-04-09T04:05:16.457Z,27.90
2023-04-09T04:06:16.437Z,29.50
2023-04-09T04:07:16.430Z,29.10
2023-04-09T04:08:17.375Z,29.70
2023-04-09T04:09:16.397Z,29.00
2023-04-09T04:10:16.450Z,29.70
2023-04-09T04:11:16.374Z,30.30
2023-04-09T04:12:16.396Z,29.30
2023-04-09T04:13:16.599Z,27.60
2023-04-09T04:14:16.341Z,29.00
2023-04-09T04:15:16.347Z,30.10
2023-04-09T04:16:16.412Z,30.80
2023-04-09T04:17:17.291Z,32.00
2023-04-09T04:18:16.349Z,30.90
2023-04-09T04:19:17.289Z,29.40
2023-04-09T04:20:16.303Z,31.40
2023-04-09T04:21:16.285Z,31.20
2023-04-09T04:22:16.279Z,30.30
2023-04-09T04:23:16.267Z,31.70
2023-04-09T04:24:16.297Z,31.40
2023-04-09T04:25:16.239Z,30.40
2023-04-09T04:26:16.223Z,30.90
2023-04-09T04:27:16.201Z,31.00
2023-04-09T04:28:16.207Z,29.80
2023-04-09T04:29:16.203Z,30.10
2023-04-09T04:30:16.201Z,31.30
2023-04-09T04:31:17.667Z,29.70
2023-04-09T04:32:16.154Z,30.90
2023-04-09T04:33:16.142Z,31.80
2023-04-09T04:34:16.274Z,30.40
2023-04-09T04:35:16.229Z,29.70
2023-04-09T04:36:17.665Z,29.30
2023-04-09T04:37:16.103Z,30.40
2023-04-09T04:38:16.139Z,28.70
2023-04-09T04:39:16.086Z,28.10
2023-04-09T04:40:16.069Z,26.70
2023-04-09T04:41:16.066Z,27.80
2023-04-09T04:42:16.072Z,28.30
2023-04-09T04:43:16.026Z,27.10
2023-04-09T04:44:16.058Z,27.80
2023-04-09T04:45:16.026Z,26.90
2023-04-09T04:46:16.119Z,27.70
2023-04-09T04:47:15.982Z,27.50
2023-04-09T04:48:16.014Z,26.10
2023-04-09T04:49:15.963Z,27.00
2023-04-09T04:50:23.184Z,26.30
2023-04-09T04:51:15.962Z,28.20
2023-04-09T04:52:17.793Z,27.10
2023-04-09T04:53:15.932Z,27.50
2023-04-09T04:54:15.913Z,26.30
2023-04-09T04:55:15.929Z,26.00
2023-04-09T04:56:16.397Z,27.80
2023-04-09T04:57:15.865Z,27.70
2023-04-09T04:58:15.869Z,26.00
2023-04-09T04:59:15.863Z,28.10
2023-04-09T05:00:15.866Z,28.30
2023-04-09T05:01:15.841Z,27.80
2023-04-09T05:02:15.951Z,28.50
2023-04-09T05:03:15.845Z,29.50
2023-04-09T05:04:15.858Z,27.00
2023-04-09T05:05:15.813Z,28.10
2023-04-09T05:06:15.772Z,28.30
2023-04-09T05:07:15.826Z,28.00
2023-04-09T05:08:15.760Z,27.00
2023-04-09T05:09:15.748Z,28.50
2023-04-09T05:10:15.751Z,28.40
2023-04-09T05:11:15.733Z,27.60
2023-04-09T05:12:15.740Z,30.30
2023-04-09T05:13:15.749Z,29.60
2023-04-09T05:14:15.693Z,26.20
2023-04-09T05:15:15.782Z,27.10
2023-04-09T05:16:15.687Z,26.10
2023-04-09T05:17:15.756Z,26.70
2023-04-09T05:18:16.639Z,27.40
2023-04-09T05:19:17.111Z,28.80
2023-04-09T05:20:17.639Z,27.10
2023-04-09T05:21:15.635Z,27.30
2023-04-09T05:22:15.605Z,28.50
2023-04-09T05:23:15.616Z,26.40
2023-04-09T05:24:15.590Z,28.60
2023-04-09T05:25:15.641Z,28.80
2023-04-09T05:26:15.582Z,27.70
2023-04-09T05:27:15.573Z,28.70
2023-04-09T05:28:15.545Z,28.20
2023-04-09T05:29:15.544Z,27.90
2023-04-09T05:30:15.508Z,28.50
2023-04-09T05:31:15.661Z,29.10
2023-04-09T05:32:15.547Z,29.60
2023-04-09T05:33:15.485Z,28.10
2023-04-09T05:34:15.475Z,29.10
2023-04-09T05:35:15.470Z,28.50
2023-04-09T05:36:15.457Z,26.50
2023-04-09T05:37:15.448Z,27.60
2023-04-09T05:38:16.273Z,26.50
2023-04-09T05:39:15.421Z,28.90
2023-04-09T05:40:16.372Z,28.40
2023-04-09T05:41:15.407Z,28.50
2023-04-09T05:42:15.381Z,27.60
2023-04-09T05:43:15.411Z,27.70
2023-04-09T05:44:15.370Z,27.80
2023-04-09T05:45:15.358Z,27.10
2023-04-09T05:46:15.392Z,28.50
2023-04-09T05:47:17.294Z,27.90
2023-04-09T05:48:15.317Z,27.10
2023-04-09T05:49:15.361Z,28.80
2023-04-09T05:50:16.269Z,27.80
2023-04-09T05:51:15.313Z,28.20
2023-04-09T05:52:15.297Z,29.60
2023-04-09T05:53:15.266Z,28.10
2023-04-09T05:54:15.302Z,27.10
2023-04-09T05:55:15.258Z,26.60
2023-04-09T05:56:15.256Z,25.80
2023-04-09T05:57:15.255Z,28.10
2023-04-09T05:58:15.209Z,27.70
2023-04-09T05:59:15.268Z,27.50
2023-04-09T06:00:15.224Z,26.20
2023-04-09T06:01:15.211Z,26.70
2023-04-09T06:02:15.356Z,27.70
2023-04-09T06:03:15.381Z,27.00
2023-04-09T06:04:15.382Z,26.20
2023-04-09T06:05:15.159Z,27.20
2023-04-09T06:06:15.126Z,26.30
2023-04-09T06:07:15.144Z,25.00
2023-04-09T06:08:15.134Z,25.50
2023-04-09T06:09:16.082Z,25.60
2023-04-09T06:10:16.078Z,23.50
2023-04-09T06:11:15.070Z,25.60
2023-04-09T06:12:15.074Z,26.10
2023-04-09T06:13:15.054Z,27.30
2023-04-09T06:14:15.046Z,28.50
2023-04-09T06:15:15.064Z,28.10
2023-04-09T06:16:15.095Z,27.80
2023-04-09T06:17:16.036Z,28.10
2023-04-09T06:18:15.004Z,29.40
2023-04-09T06:19:15.949Z,29.20
2023-04-09T06:20:14.976Z,30.10
2023-04-09T06:21:14.991Z,31.20
2023-04-09T06:22:14.954Z,32.30
2023-04-09T06:23:15.979Z,31.50
2023-04-09T06:24:14.925Z,28.60
2023-04-09T06:25:14.909Z,32.40
2023-04-09T06:26:14.942Z,31.70
2023-04-09T06:27:14.889Z,31.40
2023-04-09T06:28:14.908Z,32.00
2023-04-09T06:29:14.876Z,33.80
2023-04-09T06:30:14.849Z,31.40
2023-04-09T06:31:14.955Z,33.20
2023-04-09T06:32:14.866Z,31.10
2023-04-09T06:33:14.849Z,30.10
2023-04-09T06:34:14.819Z,31.80
2023-04-09T06:35:14.807Z,29.20
2023-04-09T06:36:14.881Z,28.20
2023-04-09T06:37:14.771Z,28.10
2023-04-09T06:38:14.774Z,27.30
2023-04-09T06:39:14.757Z,28.20
2023-04-09T06:40:15.638Z,27.40
2023-04-09T06:41:14.755Z,27.40
2023-04-09T06:42:14.755Z,26.30
2023-04-09T06:43:15.078Z,26.30
2023-04-09T06:44:14.736Z,26.60
2023-04-09T06:45:14.711Z,25.50
2023-04-09T06:46:14.767Z,24.70
2023-04-09T06:47:14.680Z,24.20
2023-04-09T06:48:15.344Z,23.60
2023-04-09T06:49:14.640Z,22.90
2023-04-09T06:50:15.624Z,23.50
2023-04-09T06:51:14.657Z,23.10
2023-04-09T06:52:14.628Z,23.60
2023-04-09T06:53:14.694Z,23.50
2023-04-09T06:54:14.891Z,23.50
2023-04-09T06:55:14.580Z,22.90
2023-04-09T06:56:15.586Z,22.60
2023-04-09T06:57:14.572Z,23.10
2023-04-09T06:58:14.546Z,22.90
2023-04-09T06:59:14.544Z,22.20
2023-04-09T07:00:14.730Z,22.60
2023-04-09T07:01:14.568Z,22.70
2023-04-09T07:02:14.530Z,22.60
2023-04-09T07:03:14.664Z,22.40
2023-04-09T07:04:14.593Z,21.20
2023-04-09T07:05:14.488Z,20.70
2023-04-09T07:06:14.490Z,20.70
2023-04-09T07:07:14.471Z,19.60
2023-04-09T07:08:14.482Z,19.70
2023-04-09T07:09:14.445Z,20.20
2023-04-09T07:10:14.433Z,19.20
2023-04-09T07:11:14.417Z,20.00
2023-04-09T07:12:14.393Z,19.80
2023-04-09T07:13:14.433Z,20.30
2023-04-09T07:14:14.478Z,19.10
2023-04-09T07:15:14.353Z,18.50
2023-04-09T07:16:14.432Z,17.50
2023-04-09T07:17:14.351Z,17.90
2023-04-09T07:18:14.358Z,17.70
2023-04-09T07:19:14.446Z,18.30
2023-04-09T07:20:14.377Z,17.20
2023-04-09T07:21:14.331Z,17.70
2023-04-09T07:22:15.433Z,17.20
2023-04-09T07:23:14.268Z,16.20
2023-04-09T07:24:14.298Z,16.50
2023-04-09T07:25:14.267Z,16.90
2023-04-09T07:26:14.272Z,15.60
2023-04-09T07:27:14.231Z,16.80
2023-04-09T07:28:14.227Z,15.60
2023-04-09T07:29:14.214Z,15.30
2023-04-09T07:30:14.239Z,15.60
2023-04-09T07:31:14.264Z,15.60
2023-04-09T07:32:14.170Z,15.10
2023-04-09T07:33:14.174Z,14.90
2023-04-09T07:34:14.156Z,13.90
2023-04-09T07:35:14.135Z,14.40
2023-04-09T07:36:14.217Z,15.10
2023-04-09T07:37:14.134Z,14.60
2023-04-09T07:38:14.109Z,14.70
2023-04-09T07:39:14.299Z,14.30
2023-04-09T07:40:14.083Z,14.40
2023-04-09T07:41:14.089Z,13.90
2023-04-09T07:42:14.080Z,14.50
2023-04-09T07:43:14.042Z,14.60
2023-04-09T07:44:14.043Z,14.10
2023-04-09T07:45:14.056Z,14.10
2023-04-09T07:46:15.040Z,14.00
2023-04-09T07:47:14.000Z,13.60
2023-04-09T07:48:13.989Z,14.50
2023-04-09T07:49:13.989Z,13.50
2023-04-09T07:50:14.951Z,12.60
2023-04-09T07:51:13.996Z,12.80
2023-04-09T07:52:13.979Z,12.70
2023-04-09T07:53:15.425Z,13.60
2023-04-09T07:54:13.939Z,12.40
2023-04-09T07:55:13.934Z,13.20
2023-04-09T07:56:13.919Z,12.30
2023-04-09T07:57:14.298Z,11.00
2023-04-09T07:58:13.918Z,10.60
2023-04-09T07:59:13.879Z,10.10
2023-04-09T08:00:13.855Z,10.70
2023-04-09T08:01:13.869Z,10.70
2023-04-09T08:02:15.408Z,10.20
2023-04-09T08:03:14.138Z,10.70
2023-04-09T08:04:13.958Z,10.90
2023-04-09T08:05:13.867Z,9.50
2023-04-09T08:06:13.811Z,9.80
2023-04-09T08:07:13.830Z,10.00
2023-04-09T08:08:13.789Z,9.40
2023-04-09T08:09:13.766Z,9.10
2023-04-09T08:10:13.766Z,9.70
2023-04-09T08:11:13.742Z,8.40
2023-04-09T08:12:13.749Z,8.20
2023-04-09T08:13:13.754Z,7.80
2023-04-09T08:14:13.721Z,8.10
2023-04-09T08:15:13.701Z,7.50
2023-04-09T08:16:13.724Z,7.10
2023-04-09T08:17:13.672Z,7.90
2023-04-09T08:18:13.676Z,7.80
2023-04-09T08:19:13.664Z,7.60
2023-04-09T08:20:13.699Z,7.70
2023-04-09T08:21:15.128Z,7.80
2023-04-09T08:22:14.213Z,7.80
2023-04-09T08:23:13.621Z,7.50
2023-04-09T08:24:14.148Z,6.80
2023-04-09T08:25:13.705Z,7.30
2023-04-09T08:26:13.633Z,7.20
2023-04-09T08:27:14.529Z,7.00
2023-04-09T08:28:13.577Z,7.40
2023-04-09T08:29:13.602Z,7.20
2023-04-09T08:30:13.558Z,7.00
2023-04-09T08:31:13.555Z,7.80
2023-04-09T08:32:14.615Z,7.10
2023-04-09T08:33:14.258Z,7.00
2023-04-09T08:34:14.389Z,6.70
2023-04-09T08:35:14.015Z,7.40
2023-04-09T08:36:13.669Z,6.90
2023-04-09T08:37:13.467Z,6.70
2023-04-09T08:38:13.448Z,6.60
2023-04-09T08:39:13.444Z,6.50
2023-04-09T08:40:13.513Z,6.90
2023-04-09T08:41:15.173Z,6.60
2023-04-09T08:42:13.438Z,7.20
2023-04-09T08:43:13.389Z,6.30
2023-04-09T08:44:13.393Z,6.60
2023-04-09T08:45:13.382Z,6.50
2023-04-09T08:46:14.330Z,6.10
2023-04-09T08:47:13.808Z,7.00
2023-04-09T08:48:13.432Z,6.30
2023-04-09T08:49:13.411Z,6.20
2023-04-09T08:50:13.319Z,6.70
2023-04-09T08:51:13.312Z,6.60
2023-04-09T08:52:13.344Z,6.00
2023-04-09T08:53:13.274Z,6.40
2023-04-09T08:54:13.289Z,6.00
2023-04-09T08:55:13.288Z,6.40
2023-04-09T08:56:13.299Z,6.20
2023-04-09T08:57:14.680Z,6.30
2023-04-09T08:58:13.256Z,5.90
2023-04-09T08:59:13.212Z,6.00
2023-04-09T09:00:13.205Z,6.20
2023-04-09T09:01:13.682Z,6.00
2023-04-09T09:02:13.352Z,6.00
2023-04-09T09:03:14.234Z,6.20
2023-04-09T09:04:13.215Z,6.00
2023-04-09T09:05:13.145Z,6.30
2023-04-09T09:06:13.203Z,6.00
2023-04-09T09:07:13.132Z,6.40
2023-04-09T09:08:13.174Z,5.50
2023-04-09T09:09:13.098Z,5.50
2023-04-09T09:10:13.108Z,6.60
2023-04-09T09:11:13.069Z,5.20
2023-04-09T09:12:13.092Z,5.80
2023-04-09T09:13:13.064Z,5.90
2023-04-09T09:14:13.046Z,5.40
2023-04-09T09:15:13.080Z,5.90
2023-04-09T09:16:13.116Z,6.10
2023-04-09T09:17:13.038Z,6.20
2023-04-09T09:18:12.997Z,6.10
2023-04-09T09:19:13.063Z,6.10
2023-04-09T09:20:12.966Z,6.20
2023-04-09T09:21:13.039Z,6.50
2023-04-09T09:22:13.060Z,6.40
2023-04-09T09:23:14.417Z,6.00
2023-04-09T09:24:14.040Z,6.20
2023-04-09T09:25:14.378Z,5.90
2023-04-09T09:26:14.384Z,6.00
2023-04-09T09:27:12.919Z,6.10
2023-04-09T09:28:12.913Z,6.10
2023-04-09T09:29:14.364Z,5.70
2023-04-09T09:30:12.882Z,5.60
2023-04-09T09:31:12.994Z,5.60
2023-04-09T09:32:12.855Z,6.00
2023-04-09T09:33:12.851Z,5.20
2023-04-09T09:34:12.881Z,5.60
2023-04-09T09:35:12.834Z,5.80
2023-04-09T09:36:12.860Z,5.80
2023-04-09T09:37:12.797Z,5.70
2023-04-09T09:38:12.784Z,5.80
2023-04-09T09:39:12.783Z,5.30
2023-04-09T09:40:12.903Z,6.00
2023-04-09T09:41:12.771Z,5.80
2023-04-09T09:42:12.749Z,6.10
2023-04-09T09:43:14.649Z,5.50
2023-04-09T09:44:12.807Z,5.20
2023-04-09T09:45:13.745Z,5.80
2023-04-09T09:46:12.739Z,5.70
2023-04-09T09:47:12.690Z,5.40
2023-04-09T09:48:12.692Z,5.90
2023-04-09T09:49:12.680Z,6.00
2023-04-09T09:50:13.695Z,5.50
2023-04-09T09:51:13.472Z,5.80
2023-04-09T09:52:12.672Z,5.80
2023-04-09T09:53:12.674Z,5.50
2023-04-09T09:54:12.646Z,5.80
2023-04-09T09:55:12.733Z,5.70
2023-04-09T09:56:12.695Z,5.40
2023-04-09T09:57:14.581Z,5.90
2023-04-09T09:58:13.393Z,5.40
2023-04-09T09:59:12.662Z,5.30
2023-04-09T10:00:12.560Z,5.90
2023-04-09T10:01:12.536Z,5.70
2023-04-09T10:02:14.094Z,5.80
2023-04-09T10:03:12.548Z,5.80
2023-04-09T10:04:12.558Z,5.80
2023-04-09T10:05:13.435Z,5.20
2023-04-09T10:06:12.685Z,5.10
2023-04-09T10:07:12.512Z,5.30
2023-04-09T10:08:12.473Z,5.80
2023-04-09T10:09:12.437Z,5.30
2023-04-09T10:10:12.430Z,5.20
2023-04-09T10:11:12.609Z,5.40
2023-04-09T10:12:12.491Z,5.70
2023-04-09T10:13:12.389Z,5.30
2023-04-09T10:14:12.611Z,5.60
2023-04-09T10:15:12.388Z,5.30
2023-04-09T10:16:12.587Z,5.40
2023-04-09T10:17:13.327Z,4.90
2023-04-09T10:18:12.343Z,5.20
2023-04-09T10:19:13.791Z,5.60
2023-04-09T10:20:13.269Z,5.10
2023-04-09T10:21:12.586Z,5.10
2023-04-09T10:22:12.343Z,4.90
2023-04-09T10:23:12.294Z,4.80
2023-04-09T10:24:12.274Z,5.20
2023-04-09T10:25:13.248Z,5.10
2023-04-09T10:26:12.234Z,4.70
2023-04-09T10:27:15.740Z,5.10
2023-04-09T10:28:12.768Z,4.70
2023-04-09T10:29:12.217Z,5.20
2023-04-09T10:30:12.985Z,5.20
2023-04-09T10:31:12.243Z,5.30
2023-04-09T10:32:12.216Z,4.70
2023-04-09T10:33:12.504Z,4.30
2023-04-09T10:34:12.159Z,4.10
2023-04-09T10:35:12.843Z,5.00
2023-04-09T10:36:12.234Z,4.60
2023-04-09T10:37:12.161Z,4.60
2023-04-09T10:38:12.114Z,4.80
2023-04-09T10:39:12.132Z,5.10
2023-04-09T10:40:12.082Z,4.20
2023-04-09T10:41:12.085Z,4.30
2023-04-09T10:42:13.153Z,4.70
2023-04-09T10:43:12.049Z,4.50
2023-04-09T10:44:12.979Z,4.30
2023-04-09T10:45:12.044Z,4.30
2023-04-09T10:46:12.030Z,4.60
2023-04-09T10:47:13.094Z,4.10
2023-04-09T10:48:11.989Z,4.90
2023-04-09T10:49:11.996Z,4.90
2023-04-09T10:50:12.003Z,4.90
2023-04-09T10:51:11.958Z,4.90
2023-04-09T10:52:12.609Z,4.50
2023-04-09T10:53:11.973Z,4.50
2023-04-09T10:54:11.934Z,4.50
2023-04-09T10:55:11.924Z,4.80
2023-04-09T10:56:11.914Z,4.80
2023-04-09T10:57:11.903Z,5.10
2023-04-09T10:58:13.614Z,5.00
2023-04-09T10:59:11.967Z,4.60
2023-04-09T11:00:11.956Z,5.00
2023-04-09T11:01:11.910Z,5.00
2023-04-09T11:02:11.907Z,4.80
2023-04-09T11:03:12.012Z,5.10
2023-04-09T11:04:11.842Z,5.00
2023-04-09T11:05:11.866Z,5.50
2023-04-09T11:06:12.051Z,5.30
2023-04-09T11:07:13.760Z,5.50
2023-04-09T11:08:11.791Z,5.80
2023-04-09T11:09:12.600Z,5.60
2023-04-09T11:10:11.772Z,5.10
2023-04-09T11:11:11.761Z,5.00
2023-04-09T11:12:11.755Z,5.20
2023-04-09T11:13:12.754Z,5.30
2023-04-09T11:14:11.753Z,5.20
2023-04-09T11:15:11.707Z,4.70
2023-04-09T11:16:11.722Z,5.40
2023-04-09T11:17:12.707Z,5.80
2023-04-09T11:18:13.196Z,5.60
2023-04-09T11:19:11.662Z,5.50
2023-04-09T11:20:11.718Z,5.50
2023-04-09T11:21:11.634Z,5.70
2023-04-09T11:22:11.719Z,5.70
2023-04-09T11:23:12.686Z,5.20
2023-04-09T11:24:11.601Z,5.20
2023-04-09T11:25:11.586Z,5.40
2023-04-09T11:26:11.592Z,5.50
2023-04-09T11:27:11.567Z,5.00
2023-04-09T11:28:11.532Z,5.40
2023-04-09T11:29:11.579Z,5.60
2023-04-09T11:30:11.634Z,5.60
2023-04-09T11:31:11.569Z,5.60
2023-04-09T11:32:11.538Z,5.60
2023-04-09T11:33:11.614Z,5.00
2023-04-09T11:34:11.506Z,5.10
2023-04-09T11:35:11.481Z,5.20
2023-04-09T11:36:11.487Z,5.60
2023-04-09T11:37:11.481Z,5.50
2023-04-09T11:38:11.472Z,5.30
2023-04-09T11:39:11.473Z,5.20
2023-04-09T11:40:11.434Z,4.90
2023-04-09T11:41:11.404Z,5.00
2023-04-09T11:42:11.382Z,5.00
2023-04-09T11:43:11.438Z,4.70
2023-04-09T11:44:12.228Z,4.80
2023-04-09T11:45:11.387Z,5.10
2023-04-09T11:46:11.368Z,5.40
2023-04-09T11:47:11.484Z,5.60
2023-04-09T11:48:11.328Z,5.50
2023-04-09T11:49:11.342Z,5.20
2023-04-09T11:50:11.333Z,5.00
2023-04-09T11:51:11.324Z,5.20
2023-04-09T11:52:11.275Z,5.00
2023-04-09T11:53:11.293Z,5.00
2023-04-09T11:54:11.262Z,5.40
2023-04-09T11:55:11.266Z,4.90
2023-04-09T11:56:11.242Z,4.80
2023-04-09T11:57:11.243Z,4.80
2023-04-09T11:58:11.226Z,5.60
2023-04-09T11:59:11.231Z,4.90
2023-04-09T12:00:11.201Z,4.90
2023-04-09T12:01:11.188Z,5.50
2023-04-09T12:02:11.308Z,5.10
2023-04-09T12:03:11.435Z,5.40
2023-04-09T12:04:12.218Z,5.00
2023-04-09T12:05:11.234Z,5.30
2023-04-09T12:06:11.127Z,4.80
2023-04-09T12:07:11.124Z,4.90
2023-04-09T12:08:11.103Z,5.30
2023-04-09T12:09:11.101Z,5.40
2023-04-09T12:10:11.111Z,5.40
2023-04-09T12:11:11.079Z,5.20
2023-04-09T12:12:11.064Z,5.30
2023-04-09T12:13:11.077Z,5.30
2023-04-09T12:14:11.102Z,5.40
2023-04-09T12:15:11.035Z,5.00
2023-04-09T12:16:11.030Z,4.80
2023-04-09T12:17:11.022Z,5.20
2023-04-09T12:18:10.998Z,4.70
2023-04-09T12:19:11.106Z,5.20
2023-04-09T12:20:13.035Z,5.10
2023-04-09T12:21:10.992Z,4.70
2023-04-09T12:22:10.953Z,4.90
2023-04-09T12:23:10.944Z,4.60
2023-04-09T12:24:10.937Z,4.90
2023-04-09T12:25:10.960Z,5.10
2023-04-09T12:26:10.965Z,5.20
2023-04-09T12:27:11.132Z,5.80
2023-04-09T12:28:10.888Z,5.40
2023-04-09T12:29:10.872Z,5.20
2023-04-09T12:30:10.864Z,5.00
2023-04-09T12:31:11.234Z,4.90
2023-04-09T12:32:10.929Z,5.20
2023-04-09T12:33:11.514Z,5.20
2023-04-09T12:34:10.814Z,5.30
2023-04-09T12:35:11.216Z,5.00
2023-04-09T12:36:10.840Z,5.10
2023-04-09T12:37:10.832Z,5.40
2023-04-09T12:38:11.747Z,5.00
2023-04-09T12:39:12.243Z,4.70
2023-04-09T12:40:10.778Z,4.70
2023-04-09T12:41:11.213Z,4.70
2023-04-09T12:42:12.172Z,4.60
2023-04-09T12:43:10.744Z,4.80
2023-04-09T12:44:11.004Z,4.80
2023-04-09T12:45:10.720Z,4.90
2023-04-09T12:46:12.219Z,4.60
2023-04-09T12:47:10.688Z,4.20
2023-04-09T12:48:10.686Z,4.60
2023-04-09T12:49:10.692Z,4.30
2023-04-09T12:50:10.664Z,4.40
2023-04-09T12:51:10.641Z,4.90
2023-04-09T12:52:10.616Z,4.40
2023-04-09T12:53:11.576Z,5.00
2023-04-09T12:54:11.488Z,4.80
2023-04-09T12:55:11.582Z,5.20
2023-04-09T12:56:10.579Z,4.20
2023-04-09T12:57:10.565Z,5.40
2023-04-09T12:58:10.605Z,4.60
2023-04-09T12:59:10.552Z,4.90
2023-04-09T13:00:10.546Z,4.90
2023-04-09T13:01:10.558Z,4.70
2023-04-09T13:02:10.636Z,4.80